createdAt,value
2018-06-22T00:00:48.601Z,99.10
2018-06-22T00:03:16.583Z,98.90
2018-06-22T00:05:45.601Z,98.90
2018-06-22T00:08:15.366Z,99.30
2018-06-22T00:10:44.559Z,99.50
2018-06-22T00:13:14.632Z,99.60
2018-06-22T00:18:14.603Z,99.90
2018-06-22T00:20:44.422Z,99.80
2018-06-22T00:23:14.295Z,99.80
2018-06-22T00:25:43.663Z,99.70
2018-06-22T00:28:14.120Z,99.60
2018-06-22T00:33:13.931Z,99.50
2018-06-22T00:35:43.627Z,99.50
2018-06-22T00:38:14.748Z,99.70
2018-06-22T00:40:48.034Z,99.80
2018-06-22T00:43:17.966Z,99.90
2018-06-22T00:45:47.550Z,99.80
2018-06-22T00:48:17.326Z,99.90
2018-06-22T00:56:11.582Z,99.90
2018-06-22T00:58:43.654Z,99.90
2018-06-22T01:01:18.782Z,99.90
2018-06-22T01:03:48.008Z,99.90
2018-06-22T01:06:18.833Z,99.90
2018-06-22T01:08:48.317Z,99.90
2018-06-22T01:11:16.619Z,99.90
2018-06-22T01:13:46.775Z,99.90
2018-06-22T01:18:43.828Z,99.90
2018-06-22T01:23:43.201Z,99.90
2018-06-22T01:26:12.002Z,99.90
2018-06-22T01:28:39.954Z,99.90
2018-06-22T01:31:08.179Z,99.90
2018-06-22T01:33:37.512Z,99.90
2018-06-22T01:36:08.606Z,99.90
2018-06-22T01:38:38.361Z,99.90
2018-06-22T01:41:11.024Z,99.90
2018-06-22T01:43:40.150Z,99.90
2018-06-22T01:46:08.759Z,99.90
2018-06-22T01:48:38.959Z,99.90
2018-06-22T01:51:09.011Z,99.90
2018-06-22T01:53:37.357Z,99.90
2018-06-22T01:56:05.353Z,99.90
2018-06-22T01:58:34.322Z,99.90
2018-06-22T02:01:03.709Z,99.90
2018-06-22T02:03:32.630Z,99.90
2018-06-22T02:06:03.448Z,99.90
2018-06-22T02:08:32.034Z,99.90
2018-06-22T02:11:00.609Z,99.90
2018-06-22T02:13:35.182Z,99.90
2018-06-22T02:16:03.488Z,99.90
2018-06-22T02:18:32.616Z,99.90
2018-06-22T02:21:01.517Z,99.90
2018-06-22T02:23:31.388Z,99.90
2018-06-22T02:25:59.415Z,99.90
2018-06-22T02:28:27.551Z,99.90
2018-06-22T02:30:55.556Z,99.90
2018-06-22T02:33:26.370Z,99.90
2018-06-22T02:35:55.280Z,99.90
2018-06-22T02:38:23.501Z,99.90
2018-06-22T02:40:52.064Z,99.90
2018-06-22T02:43:20.584Z,99.90
2018-06-22T02:45:49.590Z,99.90
2018-06-22T02:48:17.758Z,99.90
2018-06-22T02:50:46.598Z,99.90
2018-06-22T02:55:43.740Z,99.90
2018-06-22T02:58:12.691Z,99.90
2018-06-22T03:00:41.872Z,99.90
2018-06-22T03:03:10.291Z,99.90
2018-06-22T03:05:40.321Z,99.90
2018-06-22T03:08:08.374Z,99.90
2018-06-22T03:10:36.778Z,99.90
2018-06-22T03:15:35.665Z,99.90
2018-06-22T03:18:04.755Z,99.90
2018-06-22T03:20:33.920Z,99.90
2018-06-22T03:23:02.598Z,99.90
2018-06-22T03:25:31.274Z,99.90
2018-06-22T03:28:00.701Z,99.90
2018-06-22T03:30:30.208Z,99.90
2018-06-22T03:32:58.453Z,99.90
2018-06-22T03:35:26.499Z,99.90
2018-06-22T03:37:54.502Z,99.90
2018-06-22T03:40:23.365Z,99.90
2018-06-22T03:42:52.126Z,99.90
2018-06-22T03:45:20.483Z,99.90
2018-06-22T03:47:49.454Z,99.90
2018-06-22T03:50:18.267Z,99.90
2018-06-22T03:52:47.350Z,99.90
2018-06-22T03:55:15.815Z,99.90
2018-06-22T03:57:46.342Z,99.90
2018-06-22T04:00:14.346Z,99.90
2018-06-22T04:02:46.892Z,99.90
2018-06-22T04:05:15.214Z,99.90
2018-06-22T04:07:45.534Z,99.90
2018-06-22T04:10:14.677Z,99.90
2018-06-22T04:12:44.598Z,99.90
2018-06-22T04:15:13.692Z,99.90
2018-06-22T04:17:52.811Z,99.90
2018-06-22T04:20:22.709Z,99.90
2018-06-22T04:22:51.361Z,99.90
2018-06-22T04:25:21.675Z,99.90
2018-06-22T04:27:52.345Z,99.90
2018-06-22T04:30:21.626Z,99.90
2018-06-22T04:32:51.338Z,99.90
2018-06-22T04:35:22.201Z,99.90
2018-06-22T04:37:52.572Z,99.90
2018-06-22T04:40:21.683Z,99.90
2018-06-22T04:42:49.729Z,99.90
2018-06-22T04:45:18.599Z,99.90
2018-06-22T04:47:46.772Z,99.90
2018-06-22T04:50:14.771Z,99.90
2018-06-22T04:52:43.037Z,99.90
2018-06-22T04:55:11.492Z,99.90
2018-06-22T04:57:39.773Z,99.90
2018-06-22T05:02:36.522Z,99.90
2018-06-22T05:05:04.672Z,99.90
2018-06-22T05:07:33.334Z,99.90
2018-06-22T05:10:01.326Z,99.90
2018-06-22T05:14:57.956Z,99.90
2018-06-22T05:17:27.546Z,99.90
2018-06-22T05:19:55.635Z,99.90
2018-06-22T05:22:23.749Z,99.90
2018-06-22T05:24:52.155Z,99.90
2018-06-22T05:27:20.138Z,99.90
2018-06-22T05:29:48.206Z,99.90
2018-06-22T05:32:16.171Z,99.90
2018-06-22T05:34:44.385Z,99.90
2018-06-22T05:37:13.011Z,99.90
2018-06-22T05:39:41.369Z,99.90
2018-06-22T05:42:09.612Z,99.90
2018-06-22T05:44:38.371Z,99.90
2018-06-22T05:47:06.606Z,99.90
2018-06-22T05:49:34.663Z,99.90
2018-06-22T05:52:03.362Z,99.90
2018-06-22T05:54:31.349Z,99.90
2018-06-22T05:56:59.346Z,99.90
2018-06-22T05:59:27.578Z,99.90
2018-06-22T06:01:56.391Z,99.90
2018-06-22T06:04:24.466Z,99.90
2018-06-22T06:06:52.533Z,99.90
2018-06-22T06:09:20.910Z,99.90
2018-06-22T06:11:48.912Z,99.90
2018-06-22T06:14:18.505Z,99.90
2018-06-22T06:16:46.533Z,99.90
2018-06-22T06:19:14.579Z,99.90
2018-06-22T06:21:43.745Z,99.90
2018-06-22T06:24:12.655Z,99.90
2018-06-22T06:26:47.734Z,99.90
2018-06-22T06:29:15.772Z,99.90
2018-06-22T06:31:44.891Z,99.90
2018-06-22T06:34:13.858Z,99.90
2018-06-22T06:36:44.876Z,99.90
2018-06-22T06:39:13.119Z,99.90
2018-06-22T06:41:41.771Z,99.90
2018-06-22T06:44:09.813Z,99.90
2018-06-22T06:46:38.660Z,99.90
2018-06-22T06:49:06.973Z,99.90
2018-06-22T06:51:36.995Z,99.90
2018-06-22T06:54:05.081Z,99.90
2018-06-22T06:56:33.018Z,99.90
2018-06-22T06:59:01.573Z,99.90
2018-06-22T07:01:30.015Z,99.90
2018-06-22T07:03:59.776Z,99.90
2018-06-22T07:06:28.786Z,99.90
2018-06-22T07:08:56.803Z,99.90
2018-06-22T07:11:25.318Z,99.90
2018-06-22T07:13:53.731Z,99.90
2018-06-22T07:16:22.085Z,99.90
2018-06-22T07:18:51.955Z,99.90
2018-06-22T07:21:20.867Z,99.90
2018-06-22T07:23:50.944Z,99.90
2018-06-22T07:26:19.648Z,99.90
2018-06-22T07:28:47.829Z,99.90
2018-06-22T07:31:17.050Z,99.90
2018-06-22T07:33:45.243Z,99.90
2018-06-22T07:36:13.402Z,99.90
2018-06-22T07:38:42.520Z,99.90
2018-06-22T07:41:10.562Z,99.90
2018-06-22T07:43:39.249Z,99.90
2018-06-22T07:46:07.401Z,99.90
2018-06-22T07:48:35.469Z,99.90
2018-06-22T07:51:03.703Z,99.90
2018-06-22T07:53:33.015Z,99.90
2018-06-22T07:56:02.524Z,99.90
2018-06-22T07:58:31.056Z,99.90
2018-06-22T08:00:59.025Z,99.90
2018-06-22T08:03:27.822Z,99.90
2018-06-22T08:05:56.018Z,99.90
2018-06-22T08:08:24.235Z,99.90
2018-06-22T08:10:52.725Z,99.90
2018-06-22T08:13:20.709Z,99.90
2018-06-22T08:15:49.036Z,99.90
2018-06-22T08:18:17.083Z,99.90
2018-06-22T08:23:13.599Z,99.90
2018-06-22T08:25:41.642Z,99.90
2018-06-22T08:28:10.466Z,99.90
2018-06-22T08:30:38.650Z,99.90
2018-06-22T08:33:09.785Z,99.90
2018-06-22T08:35:37.866Z,99.90
2018-06-22T08:38:06.821Z,99.90
2018-06-22T08:40:34.811Z,99.90
2018-06-22T08:43:03.338Z,99.90
2018-06-22T08:47:59.814Z,99.90
2018-06-22T08:50:27.996Z,99.90
2018-06-22T08:52:56.409Z,99.90
2018-06-22T08:55:26.392Z,99.90
2018-06-22T08:57:54.626Z,99.90
2018-06-22T09:00:23.461Z,99.90
2018-06-22T09:02:52.768Z,99.90
2018-06-22T09:05:21.267Z,99.90
2018-06-22T09:07:51.044Z,99.90
2018-06-22T09:10:19.215Z,99.90
2018-06-22T09:12:47.229Z,99.90
2018-06-22T09:15:15.279Z,99.90
2018-06-22T09:17:44.042Z,99.90
2018-06-22T09:20:12.250Z,99.90
2018-06-22T09:22:40.383Z,99.90
2018-06-22T09:25:08.526Z,99.90
2018-06-22T09:27:37.414Z,99.90
2018-06-22T09:30:06.596Z,99.90
2018-06-22T09:32:35.250Z,99.90
2018-06-22T09:35:05.766Z,99.90
2018-06-22T09:37:34.756Z,99.90
2018-06-22T09:40:05.117Z,99.90
2018-06-22T09:42:33.375Z,99.90
2018-06-22T09:45:02.176Z,99.90
2018-06-22T09:47:30.417Z,99.90
2018-06-22T09:49:58.847Z,99.90
2018-06-22T09:52:27.654Z,99.90
2018-06-22T09:54:56.000Z,99.90
2018-06-22T09:57:26.294Z,99.90
2018-06-22T09:59:54.345Z,99.80
2018-06-22T10:02:22.727Z,98.40
2018-06-22T10:04:50.971Z,98.30
2018-06-22T10:07:20.434Z,98.20
2018-06-22T10:09:50.650Z,98.20
2018-06-22T10:12:18.851Z,98.30
2018-06-22T10:14:47.590Z,98.70
2018-06-22T10:17:15.762Z,99.90
2018-06-22T10:19:44.248Z,99.90
2018-06-22T10:22:12.257Z,99.90
2018-06-22T10:24:40.622Z,99.90
2018-06-22T10:27:08.895Z,99.50
2018-06-22T10:29:37.286Z,99.20
2018-06-22T10:32:05.570Z,98.80
2018-06-22T10:34:33.660Z,98.30
2018-06-22T10:37:03.042Z,98.50
2018-06-22T10:39:31.216Z,98.70
2018-06-22T10:41:59.278Z,98.40
2018-06-22T10:44:27.829Z,98.70
2018-06-22T10:46:56.629Z,98.00
2018-06-22T10:49:24.849Z,98.10
2018-06-22T10:51:53.156Z,97.50
2018-06-22T10:54:22.077Z,97.30
2018-06-22T10:56:50.337Z,97.20
2018-06-22T10:59:19.897Z,98.10
2018-06-22T11:01:48.943Z,98.50
2018-06-22T11:04:17.878Z,98.90
2018-06-22T11:06:46.655Z,99.00
2018-06-22T11:09:14.744Z,98.80
2018-06-22T11:11:43.098Z,98.30
2018-06-22T11:14:13.081Z,98.40
2018-06-22T11:16:44.170Z,97.90
2018-06-22T11:19:13.027Z,98.10
2018-06-22T11:21:41.811Z,98.00
2018-06-22T11:24:12.686Z,99.20
2018-06-22T11:26:42.599Z,99.40
2018-06-22T11:29:11.369Z,99.60
2018-06-22T11:31:41.647Z,99.90
2018-06-22T11:34:10.649Z,99.90
2018-06-22T11:36:41.015Z,99.90
2018-06-22T11:39:11.369Z,99.90
2018-06-22T11:41:41.374Z,99.90
2018-06-22T11:44:10.698Z,99.90
2018-06-22T11:46:41.959Z,99.90
2018-06-22T11:49:11.306Z,99.90
2018-06-22T11:51:42.618Z,99.90
2018-06-22T11:54:13.292Z,99.90
2018-06-22T11:56:43.015Z,99.90
2018-06-22T11:59:13.765Z,99.90
2018-06-22T12:01:41.985Z,99.90
2018-06-22T12:04:10.139Z,99.90
2018-06-22T12:06:39.173Z,99.90
2018-06-22T12:09:12.353Z,99.90
2018-06-22T12:11:41.322Z,99.90
2018-06-22T12:14:10.566Z,99.90
2018-06-22T12:16:38.641Z,99.90
2018-06-22T12:19:07.117Z,99.90
2018-06-22T12:21:35.510Z,99.90
2018-06-22T12:24:03.573Z,99.90
2018-06-22T12:26:32.482Z,99.90
2018-06-22T12:29:01.902Z,99.90
2018-06-22T12:31:33.622Z,99.90
2018-06-22T12:36:30.909Z,99.90
2018-06-22T12:38:58.874Z,99.90
2018-06-22T12:41:28.934Z,99.90
2018-06-22T12:43:58.794Z,99.90
2018-06-22T12:46:26.928Z,99.90
2018-06-22T12:48:56.269Z,99.90
2018-06-22T12:51:25.107Z,99.90
2018-06-22T12:53:53.874Z,99.90
2018-06-22T12:56:22.117Z,99.90
2018-06-22T12:58:50.847Z,99.90
2018-06-22T13:01:22.658Z,99.90
2018-06-22T13:06:19.064Z,99.90
2018-06-22T13:08:47.807Z,99.90
2018-06-22T13:11:15.906Z,99.90
2018-06-22T13:13:46.360Z,99.90
2018-06-22T13:16:17.442Z,99.90
2018-06-22T13:18:47.190Z,99.90
2018-06-22T13:21:15.332Z,99.90
2018-06-22T13:23:46.198Z,99.90
2018-06-22T13:26:14.668Z,99.80
2018-06-22T13:28:42.666Z,99.90
2018-06-22T13:31:14.296Z,99.40
2018-06-22T13:33:42.315Z,98.20
2018-06-22T13:36:10.666Z,98.50
2018-06-22T13:38:39.270Z,98.30
2018-06-22T13:41:07.360Z,97.90
2018-06-22T13:43:36.204Z,97.70
2018-06-22T13:46:04.607Z,98.30
2018-06-22T13:48:32.936Z,98.20
2018-06-22T13:51:01.414Z,98.20
2018-06-22T13:53:29.807Z,98.90
2018-06-22T13:55:57.982Z,98.90
2018-06-22T13:58:25.952Z,98.10
2018-06-22T14:00:54.527Z,98.30
2018-06-22T14:03:22.615Z,98.10
2018-06-22T14:05:56.346Z,98.20
2018-06-22T14:08:26.299Z,97.60
2018-06-22T14:11:03.496Z,97.90
2018-06-22T14:13:32.182Z,98.10
2018-06-22T14:16:01.594Z,98.50
2018-06-22T14:18:31.811Z,97.90
2018-06-22T14:21:01.145Z,98.30
2018-06-22T14:23:29.728Z,99.00
2018-06-22T14:26:00.760Z,99.20
2018-06-22T14:28:29.862Z,98.90
2018-06-22T14:30:59.003Z,98.80
2018-06-22T14:33:27.432Z,98.50
2018-06-22T14:35:56.367Z,98.50
2018-06-22T14:38:24.667Z,98.70
2018-06-22T14:40:52.838Z,99.10
2018-06-22T14:43:21.676Z,99.90
2018-06-22T14:45:50.189Z,99.90
2018-06-22T14:48:20.096Z,99.90
2018-06-22T14:50:48.420Z,99.90
2018-06-22T14:53:23.098Z,99.90
2018-06-22T14:55:57.251Z,99.90
2018-06-22T14:58:30.737Z,99.90
2018-06-22T15:01:04.217Z,99.90
2018-06-22T15:03:38.151Z,99.90
2018-06-22T15:06:13.629Z,99.90
2018-06-22T15:11:12.068Z,99.90
2018-06-22T15:13:41.347Z,99.20
2018-06-22T15:16:11.001Z,98.20
2018-06-22T15:18:39.557Z,99.00
2018-06-22T15:21:08.768Z,98.20
2018-06-22T15:23:37.158Z,98.10
2018-06-22T15:26:10.587Z,97.90
2018-06-22T15:28:41.423Z,97.90
2018-06-22T15:31:10.487Z,98.60
2018-06-22T15:33:44.160Z,97.50
2018-06-22T15:36:18.510Z,97.60
2018-06-22T15:38:52.169Z,97.60
2018-06-22T15:41:26.676Z,97.50
2018-06-22T15:44:00.580Z,97.70
2018-06-22T15:46:36.090Z,97.80
2018-06-22T15:49:10.380Z,97.90
2018-06-22T15:51:44.949Z,97.80
2018-06-22T15:54:22.611Z,98.20
2018-06-22T15:56:52.258Z,98.00
2018-06-22T15:59:20.676Z,98.00
2018-06-22T16:01:48.688Z,98.40
2018-06-22T16:04:16.910Z,99.30
2018-06-22T16:06:45.056Z,99.90
2018-06-22T16:09:13.441Z,99.90
2018-06-22T16:11:43.119Z,99.90
2018-06-22T16:16:25.399Z,99.90
2018-06-22T16:18:59.744Z,99.90
2018-06-22T16:21:33.418Z,99.90
2018-06-22T16:24:07.103Z,99.90
2018-06-22T16:26:40.539Z,99.90
2018-06-22T16:29:09.254Z,99.90
2018-06-22T16:31:38.038Z,99.90
2018-06-22T16:34:06.832Z,99.90
2018-06-22T16:36:36.003Z,99.90
2018-06-22T16:39:07.506Z,99.90
2018-06-22T16:41:35.954Z,99.90
2018-06-22T16:44:04.655Z,99.90
2018-06-22T16:46:34.058Z,99.90
2018-06-22T16:49:02.522Z,99.90
2018-06-22T16:51:30.759Z,99.90
2018-06-22T16:53:59.946Z,99.90
2018-06-22T16:56:29.227Z,99.90
2018-06-22T16:59:05.012Z,99.90
2018-06-22T17:01:33.274Z,99.90
2018-06-22T17:04:01.947Z,99.90
2018-06-22T17:06:36.362Z,99.90
2018-06-22T17:09:13.286Z,99.90
2018-06-22T17:11:47.398Z,99.90
2018-06-22T17:14:24.833Z,99.90
2018-06-22T17:17:00.350Z,99.90
2018-06-22T17:19:30.294Z,99.90
2018-06-22T17:22:03.338Z,99.90
2018-06-22T17:24:32.288Z,99.90
2018-06-22T17:27:01.772Z,99.90
2018-06-22T17:29:31.254Z,99.90
2018-06-22T17:32:00.619Z,99.90
2018-06-22T17:34:31.097Z,99.90
2018-06-22T17:39:31.094Z,99.90
2018-06-22T17:42:01.871Z,99.90
2018-06-22T17:44:33.088Z,99.90
2018-06-22T17:47:01.497Z,99.90
2018-06-22T17:49:36.090Z,99.90
2018-06-22T17:52:05.253Z,99.90
2018-06-22T17:54:33.694Z,99.90
2018-06-22T17:57:08.346Z,99.90
2018-06-22T17:59:42.149Z,99.90
2018-06-22T18:02:15.780Z,99.90
2018-06-22T18:04:45.641Z,99.90
2018-06-22T18:07:19.693Z,99.90
2018-06-22T18:09:53.702Z,99.90
2018-06-22T18:12:29.805Z,99.90
2018-06-22T18:14:58.768Z,99.90
2018-06-22T18:17:27.978Z,99.90
2018-06-22T18:19:57.627Z,99.90
2018-06-22T18:22:36.663Z,99.90
2018-06-22T18:25:05.704Z,99.90
2018-06-22T18:27:37.839Z,99.90
2018-06-22T18:30:12.184Z,99.90
2018-06-22T18:32:40.355Z,99.90
2018-06-22T18:35:11.466Z,99.90
2018-06-22T18:37:39.753Z,99.90
2018-06-22T18:40:09.672Z,99.90
2018-06-22T18:42:38.370Z,99.90
2018-06-22T18:45:08.544Z,99.90
2018-06-22T18:47:41.613Z,99.90
2018-06-22T18:52:45.703Z,99.90
2018-06-22T18:55:20.365Z,99.90
2018-06-22T18:57:53.810Z,99.90
2018-06-22T19:00:29.491Z,99.90
2018-06-22T19:03:03.274Z,99.90
2018-06-22T19:05:38.127Z,99.90
2018-06-22T19:08:06.288Z,99.90
2018-06-22T19:10:34.401Z,99.90
2018-06-22T19:13:04.470Z,99.90
2018-06-22T19:15:37.158Z,99.90
2018-06-22T19:18:08.459Z,99.90
2018-06-22T19:20:43.998Z,99.90
2018-06-22T19:23:18.614Z,99.90
2018-06-22T19:30:51.686Z,99.90
2018-06-22T19:33:20.423Z,99.90
2018-06-22T19:35:49.870Z,99.90
2018-06-22T19:38:19.066Z,99.90
2018-06-22T19:40:49.625Z,99.90
2018-06-22T19:43:25.454Z,99.90
2018-06-22T19:46:02.112Z,99.90
2018-06-22T19:48:39.246Z,99.90
2018-06-22T19:51:13.674Z,99.90
2018-06-22T19:56:29.051Z,99.90
2018-06-22T19:58:59.465Z,99.90
2018-06-22T20:01:27.823Z,99.90
2018-06-22T20:03:58.255Z,99.90
2018-06-22T20:06:27.829Z,99.90
2018-06-22T20:08:56.584Z,99.90
2018-06-22T20:11:25.075Z,99.90
2018-06-22T20:13:56.458Z,99.90
2018-06-22T20:16:29.124Z,99.90
2018-06-22T20:18:59.703Z,99.90
2018-06-22T20:21:37.732Z,99.90
2018-06-22T20:24:13.943Z,99.90
2018-06-22T20:26:46.785Z,99.90
2018-06-22T20:29:15.834Z,99.90
2018-06-22T20:31:45.819Z,99.90
2018-06-22T20:34:21.374Z,99.90
2018-06-22T20:36:55.360Z,99.90
2018-06-22T20:39:29.925Z,99.90
2018-06-22T20:42:05.538Z,99.90
2018-06-22T20:44:44.093Z,99.90
2018-06-22T20:47:18.708Z,99.90
2018-06-22T20:49:53.619Z,99.90
2018-06-22T20:52:22.945Z,99.90
2018-06-22T20:54:55.281Z,99.90
2018-06-22T20:57:28.809Z,99.90
2018-06-22T21:00:01.483Z,99.90
2018-06-22T21:02:31.016Z,99.90
2018-06-22T21:05:00.528Z,99.90
2018-06-22T21:07:28.779Z,99.90
2018-06-22T21:09:57.551Z,99.90
2018-06-22T21:14:57.390Z,99.90
2018-06-22T21:17:27.613Z,99.90
2018-06-22T21:19:56.920Z,99.90
2018-06-22T21:22:25.214Z,99.90
2018-06-22T21:24:55.474Z,99.90
2018-06-22T21:27:30.762Z,99.90
2018-06-22T21:30:05.364Z,99.90
2018-06-22T21:32:39.028Z,99.90
2018-06-22T21:35:14.570Z,99.90
2018-06-22T21:37:48.342Z,99.90
2018-06-22T21:40:17.705Z,99.90
2018-06-22T21:42:46.702Z,99.90
2018-06-22T21:45:16.683Z,99.90
2018-06-22T21:47:50.324Z,99.90
2018-06-22T21:50:22.107Z,99.90
2018-06-22T21:52:57.384Z,99.90
2018-06-22T21:55:26.877Z,99.90
2018-06-22T22:00:32.798Z,99.90
2018-06-22T22:03:01.681Z,99.90
2018-06-22T22:05:32.355Z,99.90
2018-06-22T22:08:00.463Z,99.90
2018-06-22T22:10:34.718Z,99.90
2018-06-22T22:15:39.565Z,99.90
2018-06-22T22:18:08.101Z,99.90
2018-06-22T22:20:38.133Z,99.90
2018-06-22T22:23:06.447Z,99.90
2018-06-22T22:25:36.744Z,99.90
2018-06-22T22:28:05.038Z,99.90
2018-06-22T22:30:33.339Z,99.90
2018-06-22T22:33:04.306Z,99.90
2018-06-22T22:35:33.084Z,99.90
2018-06-22T22:38:03.109Z,99.90
2018-06-22T22:40:33.639Z,99.90
2018-06-22T22:45:37.087Z,99.90
2018-06-22T22:48:06.769Z,99.90
2018-06-22T22:50:38.834Z,99.90
2018-06-22T22:53:08.726Z,99.90
2018-06-22T22:55:37.886Z,99.90
2018-06-22T22:58:06.285Z,99.90
2018-06-22T23:00:36.884Z,99.90
2018-06-22T23:03:04.882Z,99.90
2018-06-22T23:05:35.661Z,99.90
2018-06-22T23:08:07.801Z,99.90
2018-06-22T23:13:05.347Z,99.90
2018-06-22T23:15:35.667Z,99.90
2018-06-22T23:18:05.065Z,99.90
2018-06-22T23:20:35.351Z,99.90
2018-06-22T23:23:14.373Z,99.90
2018-06-22T23:25:44.044Z,99.90
2018-06-22T23:28:12.095Z,99.90
2018-06-22T23:30:42.128Z,99.90
2018-06-22T23:33:11.393Z,99.90
2018-06-22T23:35:39.546Z,99.90
2018-06-22T23:38:07.982Z,99.90
2018-06-22T23:40:35.980Z,99.90
2018-06-22T23:43:04.560Z,99.90
2018-06-22T23:45:32.774Z,99.90
2018-06-22T23:48:03.449Z,99.90
2018-06-22T23:53:04.093Z,99.90
2018-06-22T23:55:33.311Z,99.90
2018-06-22T23:58:02.133Z,99.90
